Time;durP1;ratioP1;P1;durP2;ratioP2;P2;SDS_P1;SDS_P2;PMS_P1;PMS_P2;Temp;Humidity;BMP_temperature;BMP_pressure;BME280_temperature;BME280_humidity;BME280_pressure;Samples;Min_cycle;Max_cycle;Signal;HPM_P1;HPM_P2
2022/10/15 00:02:47;;;;;;;16.35;8.93;;;;;;;9.17;100.00;100234.19;6300539;28;20048;-74
2022/10/15 00:05:47;;;;;;;18.48;9.13;;;;;;;9.20;100.00;100239.22;6300379;28;20049;-75
2022/10/15 00:08:48;;;;;;;15.45;8.40;;;;;;;9.20;100.00;100237.47;6299259;28;20093;-75
2022/10/15 00:11:49;;;;;;;17.13;8.45;;;;;;;9.17;100.00;100232.44;6298857;28;20044;-75
2022/10/15 00:14:49;;;;;;;19.25;9.90;;;;;;;9.15;100.00;100231.66;6298955;28;20040;-75
2022/10/15 00:17:50;;;;;;;14.63;9.02;;;;;;;9.10;100.00;100230.22;6298933;28;20044;-75
2022/10/15 00:20:51;;;;;;;17.50;8.52;;;;;;;9.06;100.00;100227.78;6299248;28;20102;-75
2022/10/15 00:23:54;;;;;;;9.70;6.30;;;;;;;9.05;100.00;100225.25;6298870;28;20098;-75
2022/10/15 00:26:55;;;;;;;18.65;8.13;;;;;;;9.00;100.00;100227.28;6299673;28;20041;-75
2022/10/15 00:29:58;;;;;;;13.98;7.22;;;;;;;9.00;100.00;100222.91;6299668;28;20040;-76
2022/10/15 00:32:59;;;;;;;11.50;7.32;;;;;;;8.96;100.00;100228.34;6298501;28;20150;-75
2022/10/15 00:36:03;;;;;;;12.93;7.32;;;;;;;8.95;100.00;100231.88;6298484;28;20041;-75
2022/10/15 00:39:05;;;;;;;12.13;7.30;;;;;;;8.89;100.00;100238.22;6299651;28;20061;-75
2022/10/15 00:42:06;;;;;;;;;;;;;;;8.87;100.00;100238.31;6299734;28;20041;-75
2022/10/15 00:45:14;;;;;;;17.98;6.80;;;;;;;8.84;100.00;100232.41;6281447;28;19921;-75
2022/10/15 00:48:15;;;;;;;17.02;7.32;;;;;;;8.80;100.00;100236.94;6295998;28;20048;-75
2022/10/15 00:51:18;;;;;;;9.85;6.63;;;;;;;8.81;100.00;100230.81;6298374;28;20124;-76
2022/10/15 00:54:22;;;;;;;11.95;6.70;;;;;;;8.81;100.00;100227.34;6296991;28;20040;-75
2022/10/15 00:57:24;;;;;;;11.00;6.95;;;;;;;8.84;100.00;100225.44;6296887;28;20447;-75
2022/10/15 01:00:25;;;;;;;11.27;6.47;;;;;;;8.87;100.00;100221.84;6280195;28;20045;-74
2022/10/15 01:03:26;;;;;;;14.77;7.28;;;;;;;8.85;100.00;100215.88;6297976;28;20056;-74
2022/10/15 01:06:27;;;;;;;13.32;7.15;;;;;;;8.90;100.00;100219.09;6296708;28;20507;-74
2022/10/15 01:09:28;;;;;;;12.57;7.28;;;;;;;8.94;100.00;100219.78;6296672;28;20044;-74
2022/10/15 01:12:57;;;;;;;11.27;6.78;;;;;;;8.93;100.00;100212.88;6297495;28;20056;-75
2022/10/15 01:16:08;;;;;;;10.40;7.00;;;;;;;8.85;100.00;100210.66;6296545;28;20040;-75
2022/10/15 01:19:24;;;;;;;18.42;7.60;;;;;;;8.88;100.00;100216.56;6296398;28;20101;-74
2022/10/15 01:22:34;;;;;;;12.65;7.22;;;;;;;8.91;100.00;100214.72;6296288;28;20042;-74
2022/10/15 01:26:29;;;;;;;9.48;7.32;;;;;;;8.88;100.00;100223.53;6296074;28;20424;-75
2022/10/15 01:30:11;;;;;;;16.30;7.25;;;;;;;8.83;100.00;100222.91;6246222;28;20052;-74
2022/10/15 01:33:27;;;;;;;11.73;6.70;;;;;;;8.80;100.00;100217.88;6290699;28;20057;-74
2022/10/15 01:36:30;;;;;;;9.85;6.63;;;;;;;8.77;100.00;100215.41;6296041;28;20548;-74
2022/10/15 01:39:39;;;;;;;9.70;5.85;;;;;;;8.78;100.00;100217.13;6296099;28;20037;-75
2022/10/15 01:42:51;;;;;;;11.93;7.30;;;;;;;8.75;100.00;100214.66;6295973;28;20550;-75
2022/10/15 01:45:59;;;;;;;11.80;7.30;;;;;;;8.67;100.00;100212.47;6295853;28;20049;-75
2022/10/15 01:49:03;;;;;;;14.75;7.13;;;;;;;8.65;100.00;100224.72;6295717;28;20146;-74
2022/10/15 01:52:18;;;;;;;14.25;6.80;;;;;;;8.61;100.00;100228.38;6295763;28;20159;-74
2022/10/15 01:55:21;;;;;;;12.35;7.03;;;;;;;8.53;100.00;100233.97;6296871;28;20040;-74
2022/10/15 01:58:25;;;;;;;15.68;6.88;;;;;;;8.50;100.00;100223.69;6296906;28;20033;-75
2022/10/15 02:01:26;;;;;;;11.18;6.63;;;;;;;8.51;100.00;100224.56;6295662;28;20037;-75
2022/10/15 02:04:30;;;;;;;13.13;6.57;;;;;;;8.49;100.00;100229.81;6295502;28;20102;-75
2022/10/15 02:07:56;;;;;;;12.15;6.68;;;;;;;8.47;100.00;100235.09;6296786;28;20045;-75
2022/10/15 02:11:08;;;;;;;10.52;6.20;;;;;;;8.45;100.00;100231.72;6278526;28;20044;-75
2022/10/15 02:14:14;;;;;;;15.98;7.38;;;;;;;8.45;100.00;100234.31;6295406;28;20047;-74
2022/10/15 02:17:20;;;;;;;9.63;5.85;;;;;;;8.48;100.00;100235.94;6296601;28;20401;-75
2022/10/15 02:20:30;;;;;;;13.02;7.03;;;;;;;8.48;100.00;100238.53;6295300;28;20123;-75
2022/10/15 02:23:42;;;;;;;11.50;6.70;;;;;;;8.49;100.00;100229.00;6295257;28;20064;-75
2022/10/15 02:26:46;;;;;;;13.10;7.68;;;;;;;8.54;100.00;100240.00;6295428;28;20045;-75
2022/10/15 02:29:51;;;;;;;13.32;6.68;;;;;;;8.58;100.00;100238.91;6296525;28;20045;-75
2022/10/15 02:32:57;;;;;;;13.80;6.85;;;;;;;8.66;100.00;100236.78;6312166;28;20099;-75
2022/10/15 02:35:58;;;;;;;12.57;6.90;;;;;;;8.71;100.00;100242.59;6286403;28;20493;-76
2022/10/15 02:39:02;;;;;;;10.93;6.72;;;;;;;8.74;100.00;100233.81;6297273;28;20045;-75
2022/10/15 02:42:03;;;;;;;11.98;6.75;;;;;;;8.79;100.00;100232.66;6279322;28;20067;-75
2022/10/15 02:45:05;;;;;;;10.38;5.72;;;;;;;8.83;100.00;100221.19;6295872;28;20078;-75
2022/10/15 02:48:08;;;;;;;10.10;6.55;;;;;;;8.84;100.00;100222.84;6296095;28;20464;-75
2022/10/15 02:51:09;;;;;;;10.30;5.90;;;;;;;8.86;100.00;100226.22;6295734;28;20450;-76
2022/10/15 02:54:12;;;;;;;12.52;7.07;;;;;;;8.89;100.00;100222.59;6296025;28;20079;-74
2022/10/15 02:57:12;;;;;;;12.13;6.55;;;;;;;8.95;100.00;100221.44;6295831;28;20071;-76
2022/10/15 03:00:14;;;;;;;9.02;5.82;;;;;;;9.00;100.00;100222.91;6296968;28;20036;-75
2022/10/15 03:03:15;;;;;;;11.13;5.88;;;;;;;9.04;100.00;100227.03;6296708;28;20041;-74
2022/10/15 03:06:16;;;;;;;11.18;6.80;;;;;;;9.06;100.00;100219.97;6296722;28;20127;-74
2022/10/15 03:09:19;;;;;;;13.27;6.15;;;;;;;9.13;100.00;100222.25;6296632;28;20387;-74
2022/10/15 03:12:22;;;;;;;13.30;7.63;;;;;;;9.17;100.00;100229.00;6295318;28;20504;-75
2022/10/15 03:15:22;;;;;;;10.70;6.40;;;;;;;9.24;100.00;100227.75;6295456;28;20492;-74
2022/10/15 03:18:23;;;;;;;11.70;6.15;;;;;;;9.27;100.00;100227.59;6295395;28;20060;-74
2022/10/15 03:21:24;;;;;;;9.05;5.43;;;;;;;9.31;100.00;100231.72;6297172;28;20047;-74
2022/10/15 03:24:25;;;;;;;18.60;6.40;;;;;;;9.38;100.00;100237.44;6299897;28;20484;-74
2022/10/15 03:27:26;;;;;;;12.07;6.57;;;;;;;9.43;100.00;100231.06;6299611;28;20048;-74
2022/10/15 03:30:26;;;;;;;11.07;5.95;;;;;;;9.47;100.00;100229.13;6300942;28;20123;-74
2022/10/15 03:33:29;;;;;;;9.98;6.50;;;;;;;9.53;100.00;100239.19;6299672;28;20095;-74
2022/10/15 03:36:30;;;;;;;11.27;5.70;;;;;;;9.53;100.00;100235.78;6299436;28;20484;-74
2022/10/15 03:39:31;;;;;;;11.00;6.47;;;;;;;9.54;100.00;100234.84;6300783;28;20040;-74
2022/10/15 03:42:32;;;;;;;8.15;5.13;;;;;;;9.62;100.00;100245.72;6299389;28;20473;-74
2022/10/15 03:45:32;;;;;;;11.23;5.90;;;;;;;9.69;100.00;100241.84;6299377;28;20049;-74
2022/10/15 03:48:36;;;;;;;13.43;6.35;;;;;;;9.74;100.00;100245.03;6300723;28;20358;-74
2022/10/15 03:51:37;;;;;;;10.10;5.80;;;;;;;9.74;100.00;100234.63;6300295;28;20467;-74
2022/10/15 03:54:37;;;;;;;12.57;6.13;;;;;;;9.69;100.00;100240.06;6299970;28;20044;-74
2022/10/15 03:57:38;;;;;;;11.40;5.45;;;;;;;9.67;100.00;100244.50;6298312;28;20050;-74
2022/10/15 04:00:43;;;;;;;12.70;5.25;;;;;;;9.68;100.00;100240.16;6315129;28;20051;-74
2022/10/15 04:03:45;;;;;;;9.65;4.93;;;;;;;9.63;100.00;100240.41;6331747;28;20053;-74
2022/10/15 04:06:46;;;;;;;9.65;5.93;;;;;;;9.65;100.00;100242.91;6298077;28;20044;-74
2022/10/15 04:09:47;;;;;;;9.05;4.82;;;;;;;9.59;100.00;100240.66;6297997;28;20390;-74
2022/10/15 04:12:47;;;;;;;10.23;5.72;;;;;;;9.68;100.00;100245.38;6281165;28;20080;-74
2022/10/15 04:15:48;;;;;;;10.55;6.03;;;;;;;9.70;100.00;100251.34;6281183;28;20106;-74
2022/10/15 04:18:49;;;;;;;12.73;5.95;;;;;;;9.76;100.00;100250.16;6281056;28;20106;-74
2022/10/15 04:21:50;;;;;;;14.02;5.30;;;;;;;9.74;100.00;100252.00;6298869;28;20040;-74
2022/10/15 04:24:50;;;;;;;10.30;5.43;;;;;;;9.79;100.00;100239.56;6298791;28;20041;-74
2022/10/15 04:27:52;;;;;;;11.60;5.47;;;;;;;9.80;100.00;100251.66;6297534;28;20036;-74
2022/10/15 04:30:57;;;;;;;21.25;5.47;;;;;;;9.78;100.00;100258.72;6297393;28;20044;-74
2022/10/15 04:34:00;;;;;;;11.63;5.10;;;;;;;9.80;100.00;100256.88;6298288;28;20508;-74
2022/10/15 04:37:01;;;;;;;10.20;5.82;;;;;;;9.81;100.00;100255.97;6297243;28;20040;-75
2022/10/15 04:40:04;;;;;;;7.43;4.57;;;;;;;9.75;100.00;100253.69;6298589;28;20162;-74
2022/10/15 04:43:05;;;;;;;11.75;5.38;;;;;;;9.78;100.00;100250.91;6297150;28;20044;-74
2022/10/15 04:46:07;;;;;;;8.30;4.93;;;;;;;9.72;100.00;100252.09;6297188;28;20150;-74
2022/10/15 04:49:07;;;;;;;6.75;4.20;;;;;;;9.70;100.00;100256.56;6298334;28;20041;-74
2022/10/15 04:52:08;;;;;;;8.52;5.15;;;;;;;9.63;100.00;100257.78;6298177;28;20098;-74
2022/10/15 04:55:09;;;;;;;8.77;4.57;;;;;;;9.60;100.00;100253.59;6298166;28;20044;-74
2022/10/15 04:58:10;;;;;;;7.70;5.00;;;;;;;9.69;100.00;100258.28;6280036;28;20059;-74
2022/10/15 05:01:14;;;;;;;6.78;4.38;;;;;;;9.78;100.00;100258.72;6280005;28;20507;-74
2022/10/15 05:04:15;;;;;;;9.63;5.45;;;;;;;9.65;100.00;100256.78;6296684;28;20062;-75
2022/10/15 05:07:17;;;;;;;9.30;4.70;;;;;;;9.69;100.00;100255.69;6296654;28;20480;-74
2022/10/15 05:10:18;;;;;;;14.27;5.43;;;;;;;9.70;100.00;100253.94;6296695;28;20480;-75
2022/10/15 05:13:24;;;;;;;9.30;5.10;;;;;;;9.66;100.00;100257.66;6279737;28;20060;-74
2022/10/15 05:16:27;;;;;;;9.10;5.00;;;;;;;9.67;100.00;100262.75;6297707;28;20047;-74
2022/10/15 05:19:28;;;;;;;12.75;5.63;;;;;;;9.59;100.00;100257.13;6296413;28;20068;-75
2022/10/15 05:22:29;;;;;;;8.07;4.85;;;;;;;9.59;100.00;100259.72;6296287;28;20078;-75
2022/10/15 05:25:30;;;;;;;7.78;4.63;;;;;;;9.56;100.00;100262.50;6296246;28;20071;-75
2022/10/15 05:28:31;;;;;;;9.40;5.13;;;;;;;9.58;100.00;100275.44;6297457;28;20063;-75
2022/10/15 05:31:32;;;;;;;8.60;4.68;;;;;;;9.60;100.00;100271.84;6296260;28;20488;-75
2022/10/15 05:34:33;;;;;;;8.50;5.03;;;;;;;9.67;100.00;100267.97;6297507;28;20070;-74
2022/10/15 05:37:33;;;;;;;9.50;5.20;;;;;;;9.63;100.00;100266.44;6296078;28;20312;-74
2022/10/15 05:40:34;;;;;;;6.97;4.28;;;;;;;9.67;100.00;100265.34;6295878;28;20057;-75
2022/10/15 05:43:35;;;;;;;9.90;5.20;;;;;;;9.75;100.00;100264.94;6294169;28;20052;-74
2022/10/15 05:46:39;;;;;;;6.72;4.03;;;;;;;9.87;100.00;100272.09;6295726;28;20442;-75
2022/10/15 05:49:40;;;;;;;10.13;5.32;;;;;;;9.92;100.00;100268.41;6295720;28;20485;-75
2022/10/15 05:52:40;;;;;;;9.10;5.65;;;;;;;9.96;100.00;100275.13;6295906;28;20118;-75
2022/10/15 05:55:41;;;;;;;9.82;5.38;;;;;;;10.09;100.00;100274.38;6295860;28;20532;-74
2022/10/15 05:58:45;;;;;;;10.70;5.50;;;;;;;10.20;100.00;100280.75;6296910;28;20045;-75
2022/10/15 06:01:45;;;;;;;12.30;5.47;;;;;;;10.26;100.00;100278.66;6295616;28;20416;-75
2022/10/15 06:04:47;;;;;;;11.80;5.45;;;;;;;10.35;100.00;100271.25;6296903;28;20086;-74
2022/10/15 06:07:48;;;;;;;9.77;5.22;;;;;;;10.51;100.00;100276.47;6295675;28;20059;-75
2022/10/15 06:10:49;;;;;;;8.73;5.35;;;;;;;10.66;100.00;100281.63;6295660;28;20044;-75
2022/10/15 06:13:49;;;;;;;9.85;5.15;;;;;;;10.71;100.00;100293.56;6278606;28;20143;-75
2022/10/15 06:16:53;;;;;;;9.65;4.60;;;;;;;10.82;100.00;100286.78;6262330;28;20052;-75
2022/10/15 06:19:54;;;;;;;12.57;5.20;;;;;;;10.99;100.00;100308.47;6296626;28;20534;-75
2022/10/15 06:23:01;;;;;;;9.18;5.15;;;;;;;10.99;100.00;100305.84;6296582;28;20076;-75
2022/10/15 06:26:08;;;;;;;12.10;6.00;;;;;;;11.06;100.00;100308.03;6296327;28;20672;-75
2022/10/15 06:29:09;;;;;;;10.45;5.05;;;;;;;11.12;100.00;100314.66;6296301;28;20052;-74
2022/10/15 06:32:10;;;;;;;10.38;4.85;;;;;;;11.16;100.00;100316.16;6294473;28;20091;-75
2022/10/15 06:35:11;;;;;;;7.07;4.75;;;;;;;11.13;100.00;100315.50;6329012;28;20484;-74
2022/10/15 06:38:14;;;;;;;9.63;5.20;;;;;;;11.24;100.00;100320.91;6295230;28;20036;-74
2022/10/15 06:41:15;;;;;;;10.57;5.85;;;;;;;11.31;100.00;100317.00;6295345;28;20138;-75
2022/10/15 06:44:16;;;;;;;7.28;4.75;;;;;;;11.51;100.00;100339.34;6295071;28;20048;-76
2022/10/15 06:47:17;;;;;;;10.32;5.38;;;;;;;11.53;100.00;100336.59;6296299;28;20110;-76
2022/10/15 06:50:20;;;;;;;9.75;5.55;;;;;;;11.55;100.00;100343.44;6294883;28;20481;-76
2022/10/15 06:53:21;;;;;;;8.70;5.03;;;;;;;11.59;100.00;100337.09;6296317;28;20045;-76
2022/10/15 06:56:22;;;;;;;7.70;5.03;;;;;;;11.63;100.00;100343.81;6299853;28;20040;-76
2022/10/15 06:59:23;;;;;;;8.43;5.03;;;;;;;11.70;100.00;100347.72;6299702;28;20052;-76
2022/10/15 07:02:23;;;;;;;11.35;5.90;;;;;;;11.87;100.00;100345.84;6299667;28;20044;-75
2022/10/15 07:05:26;;;;;;;11.98;5.93;;;;;;;12.00;100.00;100351.19;6300667;28;20082;-74
2022/10/15 07:08:27;;;;;;;8.82;5.07;;;;;;;12.17;100.00;100342.28;6299385;28;20063;-74
2022/10/15 07:11:30;;;;;;;15.77;6.18;;;;;;;12.45;100.00;100351.84;6299414;28;20393;-74
2022/10/15 07:14:31;;;;;;;10.40;5.05;;;;;;;12.58;100.00;100346.66;6289410;28;20053;-74
2022/10/15 07:17:34;;;;;;;11.40;5.55;;;;;;;12.75;100.00;100353.44;6268377;28;20439;-74
2022/10/15 07:20:34;;;;;;;13.73;5.75;;;;;;;12.81;100.00;100353.03;6300188;28;20052;-74
2022/10/15 07:23:37;;;;;;;6.60;4.22;;;;;;;12.93;100.00;100353.97;6300159;28;20050;-74
2022/10/15 07:26:40;;;;;;;9.32;4.93;;;;;;;13.06;100.00;100352.25;6300136;28;20640;-74
2022/10/15 07:29:43;;;;;;;10.50;5.25;;;;;;;13.03;100.00;100355.06;6298659;28;20123;-75
2022/10/15 07:32:44;;;;;;;9.63;5.55;;;;;;;13.08;100.00;100347.75;6298163;28;20056;-74
2022/10/15 07:35:45;;;;;;;9.77;5.10;;;;;;;13.33;100.00;100348.75;6299451;28;20064;-74
2022/10/15 07:38:46;;;;;;;10.45;5.20;;;;;;;13.47;100.00;100354.72;6298079;28;20048;-74
2022/10/15 07:41:47;;;;;;;18.05;5.72;;;;;;;13.56;100.00;100344.53;6281583;28;20139;-74
2022/10/15 07:44:47;;;;;;;8.52;5.20;;;;;;;13.74;100.00;100345.06;6298365;28;20050;-74
2022/10/15 07:47:48;;;;;;;11.95;5.63;;;;;;;13.77;100.00;100350.91;6298367;28;20045;-74
2022/10/15 07:50:54;;;;;;;9.80;4.85;;;;;;;13.73;100.00;100357.31;6298133;28;20059;-74
2022/10/15 07:53:54;;;;;;;7.93;5.45;;;;;;;13.88;100.00;100358.06;6299517;28;20123;-74
2022/10/15 07:56:55;;;;;;;7.25;4.63;;;;;;;14.09;100.00;100368.81;6299349;28;20074;-74
2022/10/15 07:59:58;;;;;;;8.55;4.85;;;;;;;14.15;100.00;100378.88;6298015;28;20051;-74
2022/10/15 08:03:01;;;;;;;11.27;5.55;;;;;;;14.17;100.00;100377.00;6299136;28;20547;-74
2022/10/15 08:06:04;;;;;;;13.70;5.32;;;;;;;14.16;100.00;100375.28;6298719;28;20094;-75
2022/10/15 08:09:05;;;;;;;10.80;5.07;;;;;;;14.22;100.00;100371.41;6297584;28;20044;-76
2022/10/15 08:12:06;;;;;;;8.75;4.80;;;;;;;14.43;100.00;100375.13;6297529;28;20075;-73
2022/10/15 08:15:07;;;;;;;8.27;5.32;;;;;;;14.57;99.25;100381.19;6298973;28;20119;-75
2022/10/15 08:18:11;;;;;;;9.18;5.43;;;;;;;14.57;98.66;100386.44;6297415;28;20049;-74
2022/10/15 08:21:14;;;;;;;8.93;4.65;;;;;;;14.66;99.89;100394.50;6297560;28;20454;-75
2022/10/15 08:24:15;;;;;;;10.80;5.18;;;;;;;14.76;97.46;100383.31;6298604;28;20037;-75
2022/10/15 08:27:15;;;;;;;7.75;4.15;;;;;;;14.84;97.13;100394.94;6298713;28;20088;-74
2022/10/15 08:30:18;;;;;;;9.75;5.22;;;;;;;15.04;96.67;100393.47;6296229;28;20049;-74
2022/10/15 08:33:20;;;;;;;8.95;4.72;;;;;;;15.20;93.32;100397.59;6297680;28;20045;-74
2022/10/15 08:36:20;;;;;;;8.43;4.72;;;;;;;15.50;92.53;100397.03;6297298;28;20477;-75
2022/10/15 08:53:28;;;;;;;8.07;5.32;;;;;;;15.77;89.63;100402.00;6428961;27;20480;-75
2022/10/15 08:56:38;;;;;;;9.52;4.97;;;;;;;15.72;86.74;100398.91;6376567;27;20050;-75
2022/10/15 08:59:46;;;;;;;7.47;4.70;;;;;;;15.77;87.26;100401.19;6428517;27;20057;-76
2022/10/15 09:03:03;;;;;;;7.03;4.50;;;;;;;15.66;87.70;100394.09;6394926;27;20401;-75
2022/10/15 09:06:20;;;;;;;8.10;5.15;;;;;;;15.75;87.45;100397.81;6394705;27;20401;-75
2022/10/15 09:09:34;;;;;;;18.40;4.30;;;;;;;15.77;87.81;100399.38;6376262;27;20418;-76
2022/10/15 09:12:47;;;;;;;5.90;3.90;;;;;;;15.85;88.13;100401.41;6394662;27;20038;-75
2022/10/15 09:15:57;;;;;;;8.27;3.88;;;;;;;15.95;84.06;100398.91;6393397;27;20089;-76
2022/10/15 09:19:03;;;;;;;7.40;3.85;;;;;;;16.24;85.04;100394.00;6393206;27;20474;-74
2022/10/15 09:22:05;;;;;;;7.22;3.97;;;;;;;16.20;82.84;100400.47;6375970;27;20139;-74
2022/10/15 09:25:20;;;;;;;5.57;3.38;;;;;;;16.30;83.36;100391.69;6394483;27;20062;-74
2022/10/15 09:28:30;;;;;;;6.80;4.30;;;;;;;16.33;85.32;100395.91;6393585;27;20035;-75
2022/10/15 09:31:44;;;;;;;4.80;2.97;;;;;;;16.46;81.00;100401.84;6391508;27;20039;-75
2022/10/15 09:34:55;;;;;;;5.03;3.30;;;;;;;16.64;81.45;100393.44;6367321;28;20413;-75
2022/10/15 09:38:17;;;;;;;6.15;3.40;;;;;;;16.79;83.10;100400.09;6384494;27;20047;-74
2022/10/15 09:41:44;;;;;;;9.30;3.78;;;;;;;17.08;78.76;100396.88;6389692;27;20461;-74
2022/10/15 09:44:46;;;;;;;6.10;3.55;;;;;;;16.96;75.91;100390.81;6393834;27;20039;-75
2022/10/15 09:47:47;;;;;;;6.88;3.15;;;;;;;16.88;76.46;100386.22;6393696;27;20039;-75
2022/10/15 09:51:33;;;;;;;3.60;2.67;;;;;;;17.02;77.10;100385.03;6375067;27;20139;-75
2022/10/15 09:54:45;;;;;;;4.45;3.08;;;;;;;17.18;76.87;100386.41;6357525;27;20540;-75
2022/10/15 09:57:52;;;;;;;3.85;2.88;;;;;;;17.51;74.92;100386.22;6355646;27;20040;-74
2022/10/15 10:00:57;;;;;;;4.40;2.97;;;;;;;18.05;71.63;100386.88;6325292;27;20150;-75
2022/10/15 10:04:31;;;;;;;6.80;3.65;;;;;;;18.31;68.97;100389.06;6341528;27;20418;-75
2022/10/15 10:07:37;;;;;;;5.45;3.00;;;;;;;18.16;68.97;100380.69;6367060;27;20422;-75
2022/10/15 10:10:38;;;;;;;6.97;3.00;;;;;;;18.30;71.10;100387.38;6350540;28;20039;-76
2022/10/15 10:13:48;;;;;;;8.43;3.00;;;;;;;18.37;68.28;100385.06;6332308;28;20495;-75
2022/10/15 10:17:18;;;;;;;4.05;2.70;;;;;;;18.38;68.39;100381.44;6391003;27;20054;-75
2022/10/15 10:20:20;;;;;;;3.70;2.58;;;;;;;18.76;70.59;100383.28;6374588;27;20418;-75
2022/10/15 10:23:23;;;;;;;6.63;3.00;;;;;;;18.69;68.67;100379.53;6376158;27;20039;-75
2022/10/15 10:26:25;;;;;;;4.65;3.03;;;;;;;19.03;68.42;100377.34;6409321;27;20122;-74
2022/10/15 10:29:29;;;;;;;8.65;3.17;;;;;;;18.94;66.58;100372.88;6378825;27;20070;-75
2022/10/15 10:32:34;;;;;;;5.13;2.92;;;;;;;19.07;67.06;100369.97;6350102;28;20062;-76
2022/10/15 10:35:44;;;;;;;5.10;3.17;;;;;;;19.23;66.83;100367.56;6362021;27;20490;-76
2022/10/15 10:39:03;;;;;;;5.22;2.92;;;;;;;19.15;64.81;100369.22;6374271;27;20073;-76
2022/10/15 10:42:25;;;;;;;10.57;3.42;;;;;;;18.90;66.38;100374.13;6408911;27;20087;-76
2022/10/15 10:45:26;;;;;;;6.60;3.58;;;;;;;18.64;67.63;100363.25;6373521;27;20138;-75
2022/10/15 10:48:51;;;;;;;3.92;2.97;;;;;;;18.87;67.41;100361.19;6375372;27;20045;-75
2022/10/15 10:51:52;;;;;;;4.13;3.08;;;;;;;18.92;64.81;100364.25;6369219;27;20055;-76
2022/10/15 10:55:01;;;;;;;4.63;2.38;;;;;;;19.05;66.21;100370.09;6382407;27;20063;-76
2022/10/15 10:58:11;;;;;;;6.40;2.88;;;;;;;18.81;63.23;100370.50;6347855;28;20043;-75
2022/10/15 11:01:15;;;;;;;3.45;2.63;;;;;;;19.08;62.56;100372.44;6348087;28;20044;-76
2022/10/15 11:04:28;;;;;;;5.55;2.78;;;;;;;19.53;62.54;100371.81;6363742;27;20129;-76
2022/10/15 11:07:40;;;;;;;5.57;3.10;;;;;;;20.00;59.88;100364.84;6347546;28;20047;-75
2022/10/15 11:11:35;;;;;;;4.38;3.08;;;;;;;20.04;58.19;100366.22;6348583;28;20119;-76
2022/10/15 11:14:52;;;;;;;5.30;3.13;;;;;;;19.55;59.95;100360.25;6307420;28;20062;-76
2022/10/15 11:18:22;;;;;;;6.63;2.97;;;;;;;19.88;59.50;100361.53;6348806;28;20040;-76
2022/10/15 11:21:32;;;;;;;4.65;2.65;;;;;;;20.15;59.87;100342.16;6371746;27;20047;-75
2022/10/15 11:24:42;;;;;;;8.02;3.25;;;;;;;20.16;58.78;100338.53;6358049;27;20051;-75
2022/10/15 11:28:06;;;;;;;3.97;2.55;;;;;;;20.40;56.47;100337.13;6349198;28;20051;-75
2022/10/15 11:31:33;;;;;;;4.07;3.03;;;;;;;20.33;56.96;100332.41;6352949;27;20531;-75
2022/10/15 11:35:27;;;;;;;3.58;2.28;;;;;;;20.12;57.46;100332.69;6310046;28;20055;-75
2022/10/15 11:38:41;;;;;;;4.07;2.67;;;;;;;20.59;58.49;100333.50;6279280;28;20056;-75
2022/10/15 11:41:57;;;;;;;9.57;3.10;;;;;;;20.56;55.48;100333.81;6284248;27;20041;-76
2022/10/15 11:45:29;;;;;;;8.15;2.90;;;;;;;20.02;57.55;100328.44;6374475;27;20074;-75
2022/10/15 11:48:48;;;;;;;4.67;2.67;;;;;;;20.22;54.40;100329.16;6373095;27;20048;-75
2022/10/15 11:52:03;;;;;;;4.72;2.20;;;;;;;20.34;52.76;100317.34;6372551;27;20361;-75
2022/10/15 11:55:21;;;;;;;4.53;2.45;;;;;;;20.75;53.07;100317.75;6372741;27;20459;-76
2022/10/15 11:58:34;;;;;;;3.22;2.25;;;;;;;21.07;55.21;100319.00;6407452;27;20059;-75
2022/10/15 12:01:40;;;;;;;;;;;;;;;21.13;51.76;100313.91;6356005;27;20133;-76
2022/10/15 12:04:44;;;;;;;4.07;1.92;;;;;;;20.82;50.00;100308.22;6407268;27;20014;-75
2022/10/15 12:07:48;;;;;;;4.38;2.10;;;;;;;20.81;50.71;100301.22;6372888;27;20404;-76
2022/10/15 12:11:10;;;;;;;4.57;2.28;;;;;;;20.86;53.15;100306.91;6372617;27;20469;-75
2022/10/15 12:14:29;;;;;;;3.97;2.28;;;;;;;20.91;53.12;100301.97;6373443;27;20243;-75
2022/10/15 12:17:49;;;;;;;5.07;1.92;;;;;;;20.99;50.95;100303.84;6371835;27;20058;-76
2022/10/15 12:20:54;;;;;;;2.70;1.95;;;;;;;21.00;49.32;100291.41;6372617;27;20406;-76
2022/10/15 12:23:54;;;;;;;2.05;1.58;;;;;;;20.68;47.66;100292.84;6355520;27;20141;-75
2022/10/15 12:26:55;;;;;;;3.60;1.90;;;;;;;20.63;48.11;100288.03;6373531;27;20035;-74
2022/10/15 12:29:59;;;;;;;3.33;2.00;;;;;;;20.85;48.58;100288.50;6372725;27;20082;-75
2022/10/15 12:33:01;;;;;;;3.72;2.40;;;;;;;20.94;48.37;100300.84;6371461;27;20055;-74
2022/10/15 12:36:27;;;;;;;3.30;2.50;;;;;;;20.62;50.18;100301.41;6405988;27;20043;-74
2022/10/15 12:39:29;;;;;;;2.40;1.98;;;;;;;20.20;52.03;100299.31;6373000;27;20074;-74
2022/10/15 12:42:31;;;;;;;;;;;;;;;20.01;51.08;100293.16;6371673;28;20062;-74
2022/10/15 12:45:37;;;;;;;;;;;;;;;19.95;52.39;100287.63;6406380;27;20356;-75
2022/10/15 12:48:44;;;;;;;5.38;2.10;;;;;;;20.18;51.11;100290.69;6405720;27;19925;-75
2022/10/15 12:51:45;;;;;;;3.38;2.38;;;;;;;20.44;51.30;100291.59;6387989;27;20051;-74
2022/10/15 12:54:46;;;;;;;6.13;2.20;;;;;;;20.74;51.08;100286.94;6405647;27;20047;-74
2022/10/15 12:57:46;;;;;;;2.60;2.03;;;;;;;20.61;49.87;100286.47;6372385;27;20562;-74
2022/10/15 13:00:47;;;;;;;3.47;2.25;;;;;;;20.24;50.44;100277.69;6372191;27;20275;-75
2022/10/15 13:03:50;;;;;;;5.30;2.23;;;;;;;19.82;50.85;100272.09;6372256;27;20074;-74
2022/10/15 13:07:01;;;;;;;2.13;1.67;;;;;;;19.58;52.31;100272.59;6370994;28;20043;-74
2022/10/15 13:10:03;;;;;;;2.30;1.80;;;;;;;19.64;52.02;100285.25;6353677;28;20104;-74
2022/10/15 13:13:11;;;;;;;2.53;1.55;;;;;;;19.62;51.27;100274.84;6362319;28;20038;-74
2022/10/15 13:16:13;;;;;;;2.40;1.80;;;;;;;19.65;52.72;100276.34;6325845;28;20465;-74
2022/10/15 13:19:20;;;;;;;2.15;1.95;;;;;;;19.50;51.42;100276.84;6317640;28;20040;-74
2022/10/15 13:22:24;;;;;;;5.85;1.80;;;;;;;19.35;52.02;100272.97;6355094;28;20050;-74
2022/10/15 13:25:24;;;;;;;2.75;1.85;;;;;;;19.23;51.55;100279.44;6393306;27;20052;-74
2022/10/15 13:28:35;;;;;;;5.10;2.60;;;;;;;19.21;53.97;100261.06;6347612;28;20100;-75
2022/10/15 13:31:39;;;;;;;4.53;2.45;;;;;;;18.97;54.27;100269.50;6350220;28;20050;-76
2022/10/15 13:34:40;;;;;;;3.42;2.00;;;;;;;18.93;54.87;100255.72;6350040;28;20479;-76
2022/10/15 13:37:43;;;;;;;6.47;2.40;;;;;;;18.96;54.84;100266.97;6350926;28;20032;-74
2022/10/15 13:40:50;;;;;;;23.95;9.82;;;;;;;18.95;55.36;100258.22;6367057;27;20077;-75
2022/10/15 13:43:57;;;;;;;10.73;3.85;;;;;;;18.80;57.86;100255.19;6392633;27;20418;-75
2022/10/15 13:47:00;;;;;;;5.80;2.90;;;;;;;18.83;57.40;100257.53;6376416;27;20039;-75
2022/10/15 13:50:23;;;;;;;8.63;4.78;;;;;;;18.70;57.79;100257.81;6374859;27;20047;-75
2022/10/15 13:53:30;;;;;;;7.72;4.20;;;;;;;18.67;57.86;100251.97;6374920;27;20112;-75
2022/10/15 13:56:31;;;;;;;4.90;2.80;;;;;;;18.53;57.77;100251.44;6375029;27;20039;-74
2022/10/15 13:59:32;;;;;;;6.75;3.10;;;;;;;18.59;58.38;100251.84;6375012;27;20511;-75
2022/10/15 14:02:33;;;;;;;8.43;2.80;;;;;;;18.58;58.52;100250.19;6375963;27;20448;-74
2022/10/15 14:05:34;;;;;;;5.97;2.60;;;;;;;18.49;59.26;100247.41;6374782;27;20039;-75
2022/10/15 14:08:38;;;;;;;10.82;2.45;;;;;;;18.39;59.57;100251.84;6374892;27;20039;-75
2022/10/15 14:11:38;;;;;;;6.10;2.65;;;;;;;18.39;60.43;100249.22;6332028;28;20540;-75
2022/10/15 14:14:45;;;;;;;6.90;2.38;;;;;;;18.42;61.15;100256.84;6366070;27;20047;-75
2022/10/15 14:17:50;;;;;;;6.70;2.83;;;;;;;18.39;60.25;100267.72;6350177;28;20050;-76
2022/10/15 14:20:52;;;;;;;4.00;2.40;;;;;;;18.35;61.06;100260.22;6348661;28;20071;-75
2022/10/15 14:24:06;;;;;;;4.05;3.05;;;;;;;18.41;60.62;100263.13;6349911;28;20043;-76
2022/10/15 14:27:14;;;;;;;5.55;3.30;;;;;;;18.37;62.72;100255.63;6349747;28;20399;-75
2022/10/15 14:30:25;;;;;;;5.15;3.58;;;;;;;18.31;63.37;100260.47;6348484;28;20040;-76
2022/10/15 14:33:44;;;;;;;4.80;3.00;;;;;;;18.18;64.21;100265.19;6348522;28;20074;-75
2022/10/15 14:36:45;;;;;;;5.25;3.50;;;;;;;18.05;63.26;100260.16;6349777;28;20044;-76